createdAt,value
2022-11-17T00:00:21.992Z,4.05
2022-11-17T00:02:50.685Z,3.70
2022-11-17T00:05:17.558Z,3.70
2022-11-17T00:07:45.223Z,3.95
2022-11-17T00:10:12.613Z,3.90
2022-11-17T00:12:58.060Z,4.30
2022-11-17T00:15:24.366Z,4.35
2022-11-17T00:18:11.004Z,4.15
2022-11-17T00:21:04.177Z,4.32
2022-11-17T00:23:47.437Z,3.88
2022-11-17T00:26:17.253Z,4.20
2022-11-17T00:28:43.673Z,4.95
2022-11-17T00:31:32.961Z,5.22
2022-11-17T00:34:04.981Z,5.43
2022-11-17T00:36:51.545Z,5.47
2022-11-17T00:39:18.653Z,4.65
2022-11-17T00:41:44.985Z,4.68
2022-11-17T00:44:11.561Z,4.75
2022-11-17T00:46:38.634Z,4.80
2022-11-17T00:49:07.512Z,4.25
2022-11-17T00:51:34.135Z,4.38
2022-11-17T00:54:00.492Z,4.88
2022-11-17T00:56:27.080Z,4.10
2022-11-17T00:58:53.680Z,4.80
2022-11-17T01:01:20.449Z,5.03
2022-11-17T01:03:46.960Z,5.10
2022-11-17T01:06:14.645Z,4.47
2022-11-17T01:08:41.062Z,5.00
2022-11-17T01:11:12.336Z,4.20
2022-11-17T01:13:39.485Z,4.78
2022-11-17T01:16:07.342Z,4.85
2022-11-17T01:18:33.732Z,4.45
2022-11-17T01:21:11.616Z,4.53
2022-11-17T01:23:38.993Z,4.60
2022-11-17T01:26:06.516Z,4.75
2022-11-17T01:28:33.111Z,4.97
2022-11-17T01:31:04.243Z,4.57
2022-11-17T01:33:31.020Z,5.60
2022-11-17T01:36:00.593Z,4.95
2022-11-17T01:38:26.840Z,4.78
2022-11-17T01:40:53.187Z,5.43
2022-11-17T01:43:39.709Z,4.18
2022-11-17T01:46:09.204Z,4.25
2022-11-17T01:48:35.496Z,4.57
2022-11-17T01:51:04.465Z,4.72
2022-11-17T01:53:33.801Z,4.43
2022-11-17T01:56:02.776Z,3.50
2022-11-17T01:58:31.657Z,3.55
2022-11-17T02:00:58.083Z,3.53
2022-11-17T02:03:25.898Z,3.30
2022-11-17T02:05:55.767Z,3.35
2022-11-17T02:08:23.024Z,3.53
2022-11-17T02:10:51.974Z,3.03
2022-11-17T02:13:19.156Z,2.55
2022-11-17T02:15:45.526Z,2.40
2022-11-17T02:18:12.084Z,2.33
2022-11-17T02:20:46.507Z,2.33
2022-11-17T02:23:24.615Z,3.00
2022-11-17T02:25:50.870Z,2.78
2022-11-17T02:28:18.414Z,2.95
2022-11-17T02:30:44.733Z,2.92
2022-11-17T02:33:31.628Z,3.17
2022-11-17T02:36:24.486Z,3.15
2022-11-17T02:38:59.812Z,2.78
2022-11-17T02:41:31.608Z,2.78
2022-11-17T02:44:03.868Z,2.47
2022-11-17T02:46:36.186Z,3.13
2022-11-17T02:49:05.399Z,2.70
2022-11-17T02:51:32.236Z,2.92
2022-11-17T02:54:00.059Z,2.38
2022-11-17T02:56:26.373Z,2.28
2022-11-17T02:58:56.327Z,2.60
2022-11-17T03:01:37.781Z,2.60
2022-11-17T03:04:11.547Z,2.22
2022-11-17T03:06:45.812Z,2.50
2022-11-17T03:09:12.057Z,2.30
2022-11-17T03:11:42.155Z,2.35
2022-11-17T03:14:12.491Z,2.42
2022-11-17T03:16:47.432Z,2.72
2022-11-17T03:19:16.837Z,2.30
2022-11-17T03:21:46.960Z,2.30
2022-11-17T03:24:19.559Z,2.08
2022-11-17T03:26:48.282Z,1.90
2022-11-17T03:29:16.752Z,2.67
2022-11-17T03:31:45.112Z,2.25
2022-11-17T03:34:14.153Z,2.10
2022-11-17T03:36:43.397Z,2.33
2022-11-17T03:39:16.361Z,1.95
2022-11-17T03:41:44.836Z,2.17
2022-11-17T03:44:12.416Z,2.13
2022-11-17T03:46:39.091Z,2.00
2022-11-17T03:49:27.068Z,2.42
2022-11-17T03:51:53.378Z,2.40
2022-11-17T03:54:19.816Z,2.35
2022-11-17T03:56:59.233Z,2.17
2022-11-17T03:59:46.810Z,2.38
2022-11-17T04:02:20.263Z,2.25
2022-11-17T04:05:05.449Z,2.00
2022-11-17T04:07:57.910Z,2.10
2022-11-17T04:10:27.791Z,2.10
2022-11-17T04:13:12.753Z,2.13
2022-11-17T04:15:58.907Z,2.30
2022-11-17T04:18:25.965Z,2.20
2022-11-17T04:20:54.330Z,2.20
2022-11-17T04:23:21.152Z,2.05
2022-11-17T04:26:07.699Z,2.53
2022-11-17T04:28:38.029Z,2.47
2022-11-17T04:31:16.772Z,1.92
2022-11-17T04:33:44.359Z,2.00
2022-11-17T04:36:11.727Z,2.10
2022-11-17T04:38:41.030Z,2.00
2022-11-17T04:41:27.088Z,1.65
2022-11-17T04:43:53.804Z,1.95
2022-11-17T04:46:21.305Z,1.95
2022-11-17T04:48:47.863Z,1.80
2022-11-17T04:51:14.721Z,1.52
2022-11-17T04:53:41.399Z,1.92
2022-11-17T04:56:08.051Z,1.65
2022-11-17T04:58:34.510Z,1.88
2022-11-17T05:01:12.302Z,1.50
2022-11-17T05:03:42.442Z,1.83
2022-11-17T05:06:09.868Z,1.70
2022-11-17T05:08:37.190Z,1.80
2022-11-17T05:11:22.384Z,1.80
2022-11-17T05:13:49.880Z,1.50
2022-11-17T05:16:34.885Z,1.95
2022-11-17T05:19:01.220Z,2.05
2022-11-17T05:21:27.580Z,2.00
2022-11-17T05:23:53.952Z,1.73
2022-11-17T05:26:23.315Z,2.20
2022-11-17T05:28:49.834Z,2.05
2022-11-17T05:31:16.461Z,2.05
2022-11-17T05:33:43.595Z,2.67
2022-11-17T05:36:10.454Z,2.58
2022-11-17T05:38:36.921Z,2.70
2022-11-17T05:41:03.241Z,2.58
2022-11-17T05:43:29.536Z,2.40
2022-11-17T05:45:55.907Z,2.65
2022-11-17T05:48:22.170Z,2.70
2022-11-17T05:50:48.460Z,2.60
2022-11-17T05:53:14.765Z,2.70
2022-11-17T05:55:41.072Z,2.88
2022-11-17T05:58:12.694Z,2.67
2022-11-17T06:00:39.892Z,3.13
2022-11-17T06:03:08.180Z,2.70
2022-11-17T06:05:34.451Z,2.97
2022-11-17T06:08:00.753Z,2.58
2022-11-17T06:10:27.109Z,2.55
2022-11-17T06:12:53.463Z,2.78
2022-11-17T06:15:19.942Z,3.15
2022-11-17T06:17:49.460Z,2.72
2022-11-17T06:20:19.581Z,2.30
2022-11-17T06:22:48.459Z,1.90
2022-11-17T06:25:15.954Z,1.92
2022-11-17T06:27:42.591Z,1.90
2022-11-17T06:30:09.244Z,2.00
2022-11-17T06:32:37.201Z,1.70
2022-11-17T06:35:06.517Z,2.03
2022-11-17T06:37:32.814Z,1.98
2022-11-17T06:39:59.661Z,1.83
2022-11-17T06:42:44.603Z,2.33
2022-11-17T06:45:11.347Z,2.10
2022-11-17T06:47:37.756Z,2.47
2022-11-17T06:50:04.513Z,2.35
2022-11-17T06:52:30.857Z,1.67
2022-11-17T06:54:57.231Z,1.58
2022-11-17T06:57:23.575Z,2.15
2022-11-17T06:59:51.924Z,1.52
2022-11-17T07:02:18.480Z,1.48
2022-11-17T07:04:44.763Z,1.90
2022-11-17T07:07:12.211Z,2.00
2022-11-17T07:09:38.625Z,1.40
2022-11-17T07:12:04.955Z,1.63
2022-11-17T07:14:31.363Z,1.73
2022-11-17T07:16:58.236Z,1.63
2022-11-17T07:19:24.710Z,1.75
2022-11-17T07:21:51.039Z,1.77
2022-11-17T07:24:17.462Z,1.80
2022-11-17T07:26:43.763Z,1.85
2022-11-17T07:29:10.179Z,1.33
2022-11-17T07:31:36.963Z,1.40
2022-11-17T07:34:03.349Z,1.63
2022-11-17T07:36:29.703Z,1.75
2022-11-17T07:38:56.230Z,1.70
2022-11-17T07:41:22.622Z,1.40
2022-11-17T07:43:48.976Z,1.40
2022-11-17T07:46:17.979Z,1.42
2022-11-17T07:48:44.554Z,1.20
2022-11-17T07:51:13.737Z,1.25
2022-11-17T07:53:40.225Z,0.90
2022-11-17T07:56:08.963Z,1.10
2022-11-17T07:58:36.220Z,1.17
2022-11-17T08:01:10.358Z,1.25
2022-11-17T08:03:36.915Z,1.00
2022-11-17T08:06:07.275Z,1.02
2022-11-17T08:08:34.253Z,1.30
2022-11-17T08:11:05.156Z,1.10
2022-11-17T08:13:31.627Z,1.00
2022-11-17T08:15:59.218Z,1.25
2022-11-17T08:18:26.157Z,1.10
2022-11-17T08:20:52.451Z,1.02
2022-11-17T08:23:18.759Z,1.10
2022-11-17T08:25:47.563Z,1.10
2022-11-17T08:28:13.977Z,1.20
2022-11-17T08:30:40.491Z,1.15
2022-11-17T08:33:06.858Z,0.88
2022-11-17T08:35:37.463Z,1.02
2022-11-17T08:38:04.395Z,1.20
2022-11-17T08:40:30.720Z,0.93
2022-11-17T08:43:01.231Z,1.10
2022-11-17T08:45:28.130Z,1.25
2022-11-17T08:47:55.903Z,1.10
2022-11-17T08:50:22.438Z,1.05
2022-11-17T08:52:48.906Z,1.15
2022-11-17T08:55:15.478Z,1.58
2022-11-17T08:57:43.367Z,1.30
2022-11-17T09:00:10.115Z,1.38
2022-11-17T09:02:37.653Z,0.90
2022-11-17T09:05:04.384Z,1.58
2022-11-17T09:07:35.007Z,1.48
2022-11-17T09:12:27.871Z,1.25
2022-11-17T09:14:54.168Z,1.17
2022-11-17T09:17:20.573Z,1.40
2022-11-17T09:19:49.855Z,1.55
2022-11-17T09:22:16.463Z,1.42
2022-11-17T09:24:42.793Z,1.60
2022-11-17T09:27:09.222Z,1.23
2022-11-17T09:29:38.585Z,1.08
2022-11-17T09:32:04.963Z,1.20
2022-11-17T09:37:36.507Z,1.40
2022-11-17T09:40:02.910Z,1.10
2022-11-17T09:42:34.665Z,1.75
2022-11-17T09:45:13.000Z,1.08
2022-11-17T09:47:45.966Z,1.30
2022-11-17T09:50:19.807Z,1.35
2022-11-17T09:52:49.322Z,1.27
2022-11-17T09:55:45.077Z,1.30
2022-11-17T09:58:17.894Z,1.42
2022-11-17T10:01:00.219Z,1.30
2022-11-17T10:03:28.750Z,1.15
2022-11-17T10:06:04.035Z,1.20
2022-11-17T10:08:30.282Z,1.20
2022-11-17T10:10:56.927Z,1.23
2022-11-17T10:13:30.668Z,1.30
2022-11-17T10:16:03.549Z,1.23
2022-11-17T10:18:37.576Z,1.10
2022-11-17T10:23:52.587Z,1.45
2022-11-17T10:26:21.024Z,1.75
2022-11-17T10:28:48.462Z,1.08
2022-11-17T10:31:16.098Z,0.90
2022-11-17T10:33:44.300Z,1.35
2022-11-17T10:36:14.466Z,1.50
2022-11-17T10:38:50.909Z,1.42
2022-11-17T10:41:22.861Z,1.20
2022-11-17T10:44:01.854Z,1.25
2022-11-17T10:46:34.284Z,1.40
2022-11-17T10:49:22.551Z,1.25
2022-11-17T10:54:15.106Z,1.90
2022-11-17T10:56:53.099Z,1.75
2022-11-17T10:59:31.235Z,1.60
2022-11-17T11:01:58.092Z,1.25
2022-11-17T11:04:33.692Z,1.20
2022-11-17T11:07:17.084Z,1.13
2022-11-17T11:09:48.420Z,1.33
2022-11-17T11:12:20.894Z,1.10
2022-11-17T11:14:54.148Z,1.40
2022-11-17T11:17:20.741Z,1.30
2022-11-17T11:19:53.466Z,1.50
2022-11-17T11:22:32.016Z,1.38
2022-11-17T11:25:04.257Z,1.55
2022-11-17T11:27:45.753Z,1.50
2022-11-17T11:30:15.472Z,1.63
2022-11-17T11:32:41.947Z,1.50
2022-11-17T11:35:29.774Z,1.20
2022-11-17T11:38:02.906Z,1.50
2022-11-17T11:40:31.190Z,1.33
2022-11-17T11:43:04.961Z,1.23
2022-11-17T11:45:40.413Z,1.50
2022-11-17T11:48:22.219Z,1.55
2022-11-17T11:50:57.423Z,1.45
2022-11-17T11:53:42.544Z,1.17
2022-11-17T11:56:12.624Z,1.58
2022-11-17T11:58:42.394Z,1.25
2022-11-17T12:01:09.672Z,1.40
2022-11-17T12:03:50.186Z,1.00
2022-11-17T12:06:40.748Z,1.27
2022-11-17T12:09:14.107Z,1.30
2022-11-17T12:11:59.815Z,1.40
2022-11-17T12:14:32.716Z,1.45
2022-11-17T12:17:02.050Z,1.10
2022-11-17T12:19:47.281Z,1.42
2022-11-17T12:22:17.550Z,1.90
2022-11-17T12:24:44.149Z,1.55
2022-11-17T12:27:29.420Z,1.50
2022-11-17T12:29:56.230Z,1.13
2022-11-17T12:32:41.477Z,1.30
2022-11-17T12:35:34.484Z,1.40
2022-11-17T12:38:22.700Z,1.25
2022-11-17T12:40:49.805Z,1.25
2022-11-17T12:43:16.143Z,1.85
2022-11-17T12:45:55.991Z,1.65
2022-11-17T12:48:36.283Z,1.60
2022-11-17T12:51:12.167Z,1.30
2022-11-17T12:53:50.324Z,1.60
2022-11-17T12:56:23.603Z,1.58
2022-11-17T12:58:55.967Z,1.65
2022-11-17T13:02:01.238Z,1.63
2022-11-17T13:04:36.500Z,1.48
2022-11-17T13:07:04.867Z,1.60
2022-11-17T13:09:33.350Z,1.70
2022-11-17T13:12:04.522Z,1.50
2022-11-17T13:14:34.288Z,1.90
2022-11-17T13:17:01.033Z,1.70
2022-11-17T13:19:35.581Z,1.58
2022-11-17T13:22:01.829Z,1.50
2022-11-17T13:24:29.311Z,1.60
2022-11-17T13:26:59.467Z,1.80
2022-11-17T13:29:25.859Z,1.40
2022-11-17T13:32:11.080Z,1.73
2022-11-17T13:34:45.001Z,1.63
2022-11-17T13:37:15.406Z,1.45
2022-11-17T13:39:53.200Z,1.50
2022-11-17T13:42:19.897Z,1.48
2022-11-17T13:44:46.560Z,1.38
2022-11-17T13:47:20.829Z,1.77
2022-11-17T13:49:47.820Z,2.20
2022-11-17T13:52:36.357Z,1.50
2022-11-17T13:55:10.706Z,1.60
2022-11-17T13:57:37.272Z,1.50
2022-11-17T14:00:04.401Z,1.38
2022-11-17T14:02:30.759Z,1.45
2022-11-17T14:05:09.379Z,1.65
2022-11-17T14:07:37.078Z,1.60
2022-11-17T14:10:21.901Z,1.88
2022-11-17T14:12:49.563Z,1.33
2022-11-17T14:15:22.921Z,1.42
2022-11-17T14:17:59.315Z,1.65
2022-11-17T14:20:25.629Z,1.30
2022-11-17T14:23:10.448Z,1.98
2022-11-17T14:25:41.021Z,1.88
2022-11-17T14:28:14.416Z,1.60
2022-11-17T14:30:40.919Z,1.60
2022-11-17T14:33:13.179Z,2.42
2022-11-17T14:35:40.337Z,1.60
2022-11-17T14:38:09.126Z,2.08
2022-11-17T14:40:35.445Z,1.52
2022-11-17T14:43:01.775Z,1.80
2022-11-17T14:45:28.375Z,1.70
2022-11-17T14:47:54.702Z,1.80
2022-11-17T14:50:21.930Z,1.30
2022-11-17T14:52:48.203Z,2.03
2022-11-17T14:55:14.793Z,1.75
2022-11-17T14:57:41.472Z,1.70
2022-11-17T15:00:08.539Z,1.58
2022-11-17T15:02:35.134Z,1.63
2022-11-17T15:05:01.738Z,1.70
2022-11-17T15:07:28.551Z,1.73
2022-11-17T15:09:55.282Z,1.20
2022-11-17T15:12:22.006Z,1.30
2022-11-17T15:14:48.660Z,1.25
2022-11-17T15:17:15.224Z,1.90
2022-11-17T15:19:41.585Z,1.30
2022-11-17T15:22:07.899Z,1.90
2022-11-17T15:24:34.228Z,2.75
2022-11-17T15:27:00.573Z,1.25
2022-11-17T15:29:26.880Z,1.00
2022-11-17T15:31:53.813Z,1.10
2022-11-17T15:34:20.770Z,1.15
2022-11-17T15:36:47.908Z,1.10
2022-11-17T15:39:14.815Z,0.98
2022-11-17T15:42:05.352Z,1.20
2022-11-17T15:44:31.950Z,1.50
2022-11-17T15:46:58.788Z,1.50
2022-11-17T15:49:34.368Z,2.28
2022-11-17T15:52:00.902Z,2.00
2022-11-17T15:54:27.329Z,1.55
2022-11-17T15:56:53.773Z,3.20
2022-11-17T15:59:20.417Z,1.23
2022-11-17T16:01:47.018Z,1.20
2022-11-17T16:04:15.541Z,1.50
2022-11-17T16:06:42.731Z,2.05
2022-11-17T16:09:09.617Z,2.58
2022-11-17T16:11:36.269Z,2.10
2022-11-17T16:14:03.244Z,2.25
2022-11-17T16:16:31.043Z,1.67
2022-11-17T16:18:57.710Z,2.00
2022-11-17T16:21:24.094Z,2.20
2022-11-17T16:23:57.520Z,3.38
2022-11-17T16:26:56.483Z,2.97
2022-11-17T16:29:29.741Z,1.73
2022-11-17T16:32:29.472Z,2.00
2022-11-17T16:34:56.178Z,3.08
2022-11-17T16:37:26.086Z,19.60
2022-11-17T16:39:52.463Z,6.05
2022-11-17T16:42:18.821Z,5.93
2022-11-17T16:48:33.695Z,4.38
2022-11-17T16:51:08.122Z,3.70
2022-11-17T16:53:34.762Z,2.95
2022-11-17T16:56:04.781Z,3.08
2022-11-17T16:58:31.144Z,1.90
2022-11-17T17:00:57.801Z,1.90
2022-11-17T17:03:24.424Z,2.08
2022-11-17T17:05:53.596Z,1.60
2022-11-17T17:11:44.758Z,1.70
2022-11-17T17:14:12.597Z,1.42
2022-11-17T17:16:39.061Z,1.92
2022-11-17T17:19:09.420Z,1.80
2022-11-17T17:24:10.259Z,2.35
2022-11-17T17:26:41.687Z,1.77
2022-11-17T17:29:08.475Z,1.63
2022-11-17T17:31:39.991Z,1.25
2022-11-17T17:34:07.250Z,1.70
2022-11-17T17:36:37.341Z,1.60
2022-11-17T18:40:00.344Z,3.33
